Página principal
METAR-TAF:

METAR-TAF

Aeroportos :

Chita, Rússia

latitude: 52-05N, longitude: 113-29E, altura: 685 m

Observação actual do tempo

O boletim foi feito há 29 minutos, às 16:00 UTC
Vento 8 kt de sudoeste
Temperatura -10°C
Humidade 48%
Pressão 1013 hPa
Visibilidade 10 km ou mais

METAR: UIAA 171600Z AUTO 22004MPS 9999 NCD M10/M19 Q1013 RMK QFE701/0935

Hora: 01:29 (16:29 UTC)

Previsão

O boletim foi feito há 2 horas e 29 minutos, às 14:00 UTC
Previsão válida de 17 às 15 UTC a 18 às 15 UTC
Vento 6 kt de sudoeste
Visibilidade 10 km ou mais

TAF: UIAA 171400Z 1715/1815 22003MPS 9999 NSC

Observações e previsões do tempo de mais de 4000 aeroportos (mensagens METAR e TAF).

As estações disponíveis são os pontos amarelos e vermelhos sobre o mapa.

Mova o rato sobre o mapa para ver o nome da estação.

Depois clique no ponto para visualizar as observações e previsões meteorológicas.

Para alterar o mapa : clique nos botões verdes com uma cruz preta para aumentar o zoom; no botão verde com uma pitada de zoom; ou nas setas verdes para mapas adjacentes.


METAR-TAF: